createdAt,value
2019-03-24T00:02:24.303Z,9.23
2019-03-24T00:04:54.887Z,9.47
2019-03-24T00:07:25.338Z,9.43
2019-03-24T00:09:55.838Z,9.93
2019-03-24T00:12:26.466Z,9.20
2019-03-24T00:14:57.018Z,10.30
2019-03-24T00:17:27.612Z,9.43
2019-03-24T00:19:58.034Z,10.13
2019-03-24T00:22:28.494Z,9.40
2019-03-24T00:24:58.986Z,7.77
2019-03-24T00:27:29.443Z,8.10
2019-03-24T00:30:00.023Z,7.70
2019-03-24T00:32:30.704Z,7.97
2019-03-24T00:35:01.432Z,7.87
2019-03-24T00:37:31.847Z,7.27
2019-03-24T00:40:02.302Z,6.80
2019-03-24T00:42:32.847Z,7.80
2019-03-24T00:45:03.355Z,6.83
2019-03-24T00:47:33.902Z,7.30
2019-03-24T00:50:04.767Z,7.20
2019-03-24T00:52:35.319Z,7.20
2019-03-24T00:55:06.376Z,7.30
2019-03-24T00:57:37.752Z,7.53
2019-03-24T01:00:09.609Z,6.93
2019-03-24T01:02:40.317Z,6.77
2019-03-24T01:05:10.907Z,7.30
2019-03-24T01:07:41.699Z,7.00
2019-03-24T01:10:12.574Z,6.17
2019-03-24T01:12:43.055Z,6.67
2019-03-24T01:15:14.081Z,6.73
2019-03-24T01:17:44.748Z,6.37
2019-03-24T01:20:15.306Z,6.20
2019-03-24T01:22:45.863Z,6.60
2019-03-24T01:25:16.369Z,6.40
2019-03-24T01:27:47.018Z,5.63
2019-03-24T01:30:17.849Z,6.43
2019-03-24T01:32:48.477Z,7.40
2019-03-24T01:35:18.978Z,6.70
2019-03-24T01:37:49.535Z,7.00
2019-03-24T01:40:20.029Z,7.07
2019-03-24T01:42:50.560Z,6.93
2019-03-24T01:45:21.150Z,7.13
2019-03-24T01:47:51.709Z,7.10
2019-03-24T01:50:22.245Z,7.07
2019-03-24T01:52:52.895Z,6.63
2019-03-24T01:55:23.538Z,6.77
2019-03-24T01:57:54.129Z,6.97
2019-03-24T02:00:24.788Z,6.70
2019-03-24T02:02:55.315Z,7.00
2019-03-24T02:05:25.838Z,6.70
2019-03-24T02:07:56.307Z,6.43
2019-03-24T02:10:26.826Z,6.70
2019-03-24T02:12:57.408Z,6.37
2019-03-24T02:15:27.868Z,6.47
2019-03-24T02:17:58.364Z,5.50
2019-03-24T02:20:28.859Z,6.23
2019-03-24T02:22:59.314Z,6.43
2019-03-24T02:25:29.987Z,6.23
2019-03-24T02:28:00.431Z,6.07
2019-03-24T02:30:31.101Z,6.50
2019-03-24T02:33:01.574Z,6.30
2019-03-24T02:35:32.214Z,6.13
2019-03-24T02:38:02.675Z,6.10
2019-03-24T02:40:33.201Z,5.70
2019-03-24T02:43:03.765Z,5.87
2019-03-24T02:45:34.342Z,5.50
2019-03-24T02:48:05.004Z,5.93
2019-03-24T02:50:35.540Z,5.20
2019-03-24T02:53:06.313Z,5.20
2019-03-24T02:55:36.792Z,5.70
2019-03-24T02:58:07.349Z,5.37
2019-03-24T03:00:38.101Z,5.00
2019-03-24T03:03:08.747Z,5.27
2019-03-24T03:05:39.464Z,5.33
2019-03-24T03:08:10.146Z,5.43
2019-03-24T03:10:40.812Z,5.20
2019-03-24T03:13:11.296Z,4.33
2019-03-24T03:15:41.879Z,5.13
2019-03-24T03:18:12.368Z,5.40
2019-03-24T03:20:42.931Z,4.90
2019-03-24T03:23:13.694Z,5.37
2019-03-24T03:25:44.246Z,5.50
2019-03-24T03:28:14.757Z,5.07
2019-03-24T03:30:46.504Z,5.10
2019-03-24T03:33:17.034Z,5.10
2019-03-24T03:35:47.537Z,4.93
2019-03-24T03:38:18.239Z,5.10
2019-03-24T03:40:48.885Z,5.33
2019-03-24T03:43:19.427Z,5.53
2019-03-24T03:45:50.123Z,5.80
2019-03-24T03:48:20.553Z,6.30
2019-03-24T03:50:50.987Z,6.03
2019-03-24T03:53:21.552Z,6.47
2019-03-24T03:55:52.038Z,7.87
2019-03-24T03:58:22.479Z,8.40
2019-03-24T04:00:53.203Z,8.17
2019-03-24T04:03:23.658Z,8.90
2019-03-24T04:05:54.194Z,10.00
2019-03-24T04:08:24.738Z,9.57
2019-03-24T04:10:55.252Z,10.73
2019-03-24T04:13:25.716Z,10.73
2019-03-24T04:15:56.252Z,10.97
2019-03-24T04:18:26.785Z,11.57
2019-03-24T04:20:57.256Z,12.00
2019-03-24T04:23:27.819Z,11.33
2019-03-24T04:25:58.359Z,11.60
2019-03-24T04:28:28.945Z,11.50
2019-03-24T04:30:59.488Z,11.33
2019-03-24T04:33:29.951Z,11.80
2019-03-24T04:36:00.453Z,12.00
2019-03-24T04:38:30.986Z,12.67
2019-03-24T04:41:01.412Z,12.70
2019-03-24T04:43:31.971Z,12.53
2019-03-24T04:46:03.622Z,12.67
2019-03-24T04:48:34.086Z,12.77
2019-03-24T04:51:04.604Z,12.57
2019-03-24T04:53:35.235Z,13.13
2019-03-24T04:56:05.970Z,12.73
2019-03-24T04:58:36.454Z,13.83
2019-03-24T05:01:07.137Z,12.53
2019-03-24T05:03:37.930Z,13.63
2019-03-24T05:06:08.890Z,13.93
2019-03-24T05:08:39.578Z,13.57
2019-03-24T05:11:10.152Z,13.73
2019-03-24T05:13:40.632Z,13.37
2019-03-24T05:16:11.147Z,12.87
2019-03-24T05:18:41.688Z,13.03
2019-03-24T05:21:12.298Z,13.23
2019-03-24T05:23:42.790Z,13.43
2019-03-24T05:26:13.294Z,13.37
2019-03-24T05:28:43.738Z,14.50
2019-03-24T05:31:14.235Z,13.47
2019-03-24T05:33:44.755Z,13.60
2019-03-24T05:36:15.368Z,14.13
2019-03-24T05:38:45.896Z,13.53
2019-03-24T05:41:16.534Z,14.10
2019-03-24T05:43:46.971Z,13.50
2019-03-24T05:46:17.524Z,13.17
2019-03-24T05:48:48.302Z,14.07
2019-03-24T05:51:18.927Z,13.90
2019-03-24T05:53:49.382Z,13.60
2019-03-24T05:56:20.055Z,14.87
2019-03-24T05:58:50.594Z,13.23
2019-03-24T06:01:21.080Z,13.87
2019-03-24T06:03:51.733Z,14.37
2019-03-24T06:06:22.312Z,12.80
2019-03-24T06:08:52.841Z,13.23
2019-03-24T06:11:23.333Z,13.70
2019-03-24T06:13:53.798Z,13.40
2019-03-24T06:16:24.327Z,13.50
2019-03-24T06:18:54.817Z,13.97
2019-03-24T06:21:25.311Z,13.67
2019-03-24T06:23:55.906Z,13.20
2019-03-24T06:26:26.483Z,12.30
2019-03-24T06:28:57.163Z,12.70
2019-03-24T06:31:27.635Z,12.13
2019-03-24T06:33:58.179Z,13.07
2019-03-24T06:36:28.686Z,13.10
2019-03-24T06:38:59.160Z,12.93
2019-03-24T06:41:29.598Z,12.33
2019-03-24T06:44:00.204Z,12.07
2019-03-24T06:46:30.749Z,11.17
2019-03-24T06:49:01.198Z,11.63
2019-03-24T06:51:31.616Z,11.33
2019-03-24T06:54:02.174Z,10.80
2019-03-24T06:56:32.619Z,11.27
2019-03-24T06:59:03.035Z,10.10
2019-03-24T07:01:33.528Z,10.00
2019-03-24T07:04:04.113Z,9.43
2019-03-24T07:06:34.855Z,9.87
2019-03-24T07:09:06.517Z,9.03
2019-03-24T07:11:37.061Z,9.27
2019-03-24T07:14:07.712Z,9.03
2019-03-24T07:16:38.266Z,9.07
2019-03-24T07:19:08.722Z,8.53
2019-03-24T07:21:39.251Z,9.17
2019-03-24T07:24:09.789Z,9.20
2019-03-24T07:26:40.289Z,8.83
2019-03-24T07:29:10.795Z,8.63
2019-03-24T07:31:41.221Z,8.23
2019-03-24T07:34:11.787Z,9.63
2019-03-24T07:36:42.409Z,9.20
2019-03-24T07:39:13.153Z,9.93
2019-03-24T07:41:43.610Z,10.93
2019-03-24T07:44:14.176Z,11.60
2019-03-24T07:46:44.842Z,11.30
2019-03-24T07:49:15.330Z,12.70
2019-03-24T07:51:45.799Z,12.17
2019-03-24T07:54:16.377Z,11.90
2019-03-24T07:56:46.957Z,11.70
2019-03-24T07:59:17.557Z,13.00
2019-03-24T08:01:48.019Z,12.00
2019-03-24T08:04:18.531Z,12.40
2019-03-24T08:06:49.030Z,12.60
2019-03-24T08:09:19.600Z,12.80
2019-03-24T08:11:50.019Z,13.30
2019-03-24T08:14:20.731Z,13.20
2019-03-24T08:16:51.203Z,13.70
2019-03-24T08:19:21.701Z,14.40
2019-03-24T08:21:52.382Z,14.57
2019-03-24T08:24:22.944Z,13.93
2019-03-24T08:26:53.491Z,15.20
2019-03-24T08:29:24.073Z,14.47
2019-03-24T08:31:54.555Z,14.03
2019-03-24T08:34:25.136Z,15.60
2019-03-24T08:36:55.649Z,14.50
2019-03-24T08:39:26.173Z,14.83
2019-03-24T08:41:56.637Z,14.33
2019-03-24T08:44:27.232Z,14.83
2019-03-24T08:46:57.764Z,15.60
2019-03-24T08:49:28.208Z,16.47
2019-03-24T08:51:58.806Z,17.63
2019-03-24T08:54:29.363Z,17.53
2019-03-24T08:56:59.831Z,18.33
2019-03-24T08:59:30.560Z,16.23
2019-03-24T09:02:01.205Z,17.03
2019-03-24T09:04:31.935Z,15.83
2019-03-24T09:07:02.372Z,16.73
2019-03-24T09:09:32.802Z,15.13
2019-03-24T09:12:03.321Z,15.80
2019-03-24T09:14:34.012Z,16.80
2019-03-24T09:17:04.609Z,16.27
2019-03-24T09:19:35.024Z,16.53
2019-03-24T09:22:05.729Z,16.30
2019-03-24T09:24:36.262Z,16.83
2019-03-24T09:27:06.894Z,16.50
2019-03-24T09:29:37.564Z,18.13
2019-03-24T09:32:08.070Z,18.93
2019-03-24T09:34:40.508Z,17.10
2019-03-24T09:37:10.852Z,18.17
2019-03-24T09:39:41.412Z,17.37
2019-03-24T09:42:12.034Z,16.57
2019-03-24T09:44:42.474Z,17.07
2019-03-24T09:47:12.937Z,17.77
2019-03-24T09:49:43.421Z,17.17
2019-03-24T09:52:14.042Z,19.03
2019-03-24T09:54:44.743Z,18.13
2019-03-24T09:57:15.182Z,17.33
2019-03-24T09:59:45.739Z,18.93
2019-03-24T10:02:16.334Z,20.47
2019-03-24T10:04:46.885Z,20.33
2019-03-24T10:07:17.415Z,19.10
2019-03-24T10:09:47.971Z,19.73
2019-03-24T10:12:18.512Z,19.03
2019-03-24T10:14:49.068Z,18.37
2019-03-24T10:17:19.562Z,17.10
2019-03-24T10:19:50.026Z,16.93
2019-03-24T10:22:20.579Z,16.50
2019-03-24T10:24:51.092Z,17.70
2019-03-24T10:27:21.598Z,16.70
2019-03-24T10:29:52.192Z,16.70
2019-03-24T10:32:22.646Z,16.13
2019-03-24T10:34:53.202Z,17.70
2019-03-24T10:37:23.939Z,18.03
2019-03-24T10:39:54.390Z,18.80
2019-03-24T10:42:24.905Z,19.43
2019-03-24T10:44:55.413Z,19.43
2019-03-24T10:47:25.883Z,17.53
2019-03-24T10:49:56.303Z,19.17
2019-03-24T10:52:26.829Z,19.97
2019-03-24T10:54:57.540Z,20.07
2019-03-24T10:57:27.965Z,19.50
2019-03-24T10:59:58.486Z,18.87
2019-03-24T11:02:28.899Z,18.77
2019-03-24T11:04:59.373Z,17.97
2019-03-24T11:07:30.000Z,18.67
2019-03-24T11:10:00.478Z,18.83
2019-03-24T11:12:31.153Z,17.37
2019-03-24T11:15:01.752Z,17.37
2019-03-24T11:17:32.317Z,19.27
2019-03-24T11:20:02.813Z,17.30
2019-03-24T11:22:33.326Z,19.23
2019-03-24T11:25:03.933Z,17.73
2019-03-24T11:27:34.564Z,17.43
2019-03-24T11:30:05.646Z,15.23
2019-03-24T11:32:36.254Z,16.07
2019-03-24T11:35:07.361Z,14.90
2019-03-24T11:37:37.809Z,14.23
2019-03-24T11:40:08.870Z,15.43
2019-03-24T11:42:39.456Z,15.73
2019-03-24T11:45:11.516Z,14.67
2019-03-24T11:47:42.309Z,15.57
2019-03-24T11:50:13.302Z,14.70
2019-03-24T11:52:43.801Z,15.90
2019-03-24T11:55:14.653Z,16.07
2019-03-24T11:57:45.329Z,15.10
2019-03-24T12:00:16.406Z,14.87
2019-03-24T12:02:46.891Z,14.90
2019-03-24T12:05:17.483Z,14.63
2019-03-24T12:07:48.025Z,14.53
2019-03-24T12:10:18.764Z,17.90
2019-03-24T12:12:49.249Z,17.93
2019-03-24T12:15:21.797Z,17.87
2019-03-24T12:17:52.406Z,18.67
2019-03-24T12:20:22.893Z,19.20
2019-03-24T12:22:53.458Z,16.47
2019-03-24T12:25:24.059Z,17.10
2019-03-24T12:27:54.591Z,16.73
2019-03-24T12:30:25.197Z,15.87
2019-03-24T12:32:55.903Z,17.40
2019-03-24T12:35:26.630Z,14.30
2019-03-24T12:37:57.170Z,13.73
2019-03-24T12:40:27.824Z,13.40
2019-03-24T12:42:58.701Z,13.70
2019-03-24T12:45:29.194Z,13.03
2019-03-24T12:47:59.819Z,12.90
2019-03-24T12:50:31.774Z,11.87
2019-03-24T12:53:02.501Z,11.90
2019-03-24T12:55:33.267Z,13.87
2019-03-24T12:58:03.719Z,14.00
2019-03-24T13:00:44.201Z,14.67
2019-03-24T13:03:14.906Z,13.37
2019-03-24T13:05:45.489Z,12.77
2019-03-24T13:08:19.599Z,12.33
2019-03-24T13:10:51.233Z,10.80
2019-03-24T13:13:21.782Z,10.53
2019-03-24T13:15:52.519Z,10.60
2019-03-24T13:18:23.046Z,11.30
2019-03-24T13:20:53.824Z,10.30
2019-03-24T13:23:24.387Z,9.50
2019-03-24T13:25:55.018Z,9.67
2019-03-24T13:28:25.497Z,9.83
2019-03-24T13:30:56.220Z,9.87
2019-03-24T13:33:26.810Z,10.00
2019-03-24T13:36:10.174Z,9.00
2019-03-24T13:38:40.745Z,8.50
2019-03-24T13:41:11.265Z,8.57
2019-03-24T13:43:41.938Z,7.77
2019-03-24T13:46:13.667Z,8.00
2019-03-24T13:48:44.114Z,7.23
2019-03-24T13:51:14.707Z,7.33
2019-03-24T13:53:45.360Z,7.20
2019-03-24T13:56:15.785Z,7.13
2019-03-24T13:58:46.255Z,6.60
2019-03-24T14:01:17.555Z,7.50
2019-03-24T14:03:48.063Z,6.50
2019-03-24T14:06:18.529Z,7.07
2019-03-24T14:08:49.089Z,6.70
2019-03-24T14:11:19.763Z,5.90
2019-03-24T14:13:50.251Z,6.20
2019-03-24T14:16:20.927Z,6.57
2019-03-24T14:18:51.441Z,6.43
2019-03-24T14:21:21.887Z,6.70
2019-03-24T14:23:52.428Z,6.50
2019-03-24T14:26:22.995Z,6.33
2019-03-24T14:28:53.566Z,6.40
2019-03-24T14:31:24.270Z,5.43
2019-03-24T14:33:54.780Z,6.00
2019-03-24T14:36:25.429Z,5.63
2019-03-24T14:38:56.015Z,5.73
2019-03-24T14:41:26.574Z,5.93
2019-03-24T14:43:57.063Z,5.47
2019-03-24T14:46:27.675Z,5.90
2019-03-24T14:48:58.243Z,5.00
2019-03-24T14:51:28.894Z,5.10
2019-03-24T14:53:59.526Z,5.60
2019-03-24T14:56:30.010Z,5.87
2019-03-24T14:59:00.533Z,5.90
2019-03-24T15:01:30.981Z,5.57
2019-03-24T15:04:01.425Z,5.60
2019-03-24T15:06:32.051Z,5.63
2019-03-24T15:09:03.618Z,5.60
2019-03-24T15:11:34.172Z,5.53
2019-03-24T15:14:04.820Z,5.03
2019-03-24T15:16:35.260Z,5.23
2019-03-24T15:19:05.919Z,5.00
2019-03-24T15:21:36.595Z,5.20
2019-03-24T15:24:07.035Z,4.63
2019-03-24T15:26:37.661Z,5.17
2019-03-24T15:29:08.066Z,5.33
2019-03-24T15:31:38.637Z,5.33
2019-03-24T15:34:09.285Z,4.90
2019-03-24T15:36:39.874Z,4.47
2019-03-24T15:39:11.021Z,4.10
2019-03-24T15:41:41.584Z,4.80
2019-03-24T15:44:12.037Z,4.90
2019-03-24T15:46:42.567Z,4.83
2019-03-24T15:49:12.978Z,5.00
2019-03-24T15:51:43.472Z,4.53
2019-03-24T15:54:13.997Z,4.73
2019-03-24T15:56:44.455Z,4.60
2019-03-24T15:59:14.873Z,4.37
2019-03-24T16:01:45.469Z,4.47
2019-03-24T16:04:15.951Z,4.50
2019-03-24T16:06:46.538Z,4.40
2019-03-24T16:09:17.015Z,4.07
2019-03-24T16:11:47.583Z,3.97
2019-03-24T16:14:18.055Z,3.93
2019-03-24T16:16:48.505Z,3.90
2019-03-24T16:19:19.273Z,3.67
2019-03-24T16:21:49.814Z,3.97
2019-03-24T16:24:20.413Z,3.83
2019-03-24T16:26:50.839Z,3.80
2019-03-24T16:29:21.289Z,3.80
2019-03-24T16:31:51.936Z,3.73
2019-03-24T16:34:22.485Z,4.07
2019-03-24T16:36:53.109Z,3.87
2019-03-24T16:39:23.794Z,3.87
2019-03-24T16:41:54.408Z,4.50
2019-03-24T16:44:24.822Z,3.50
2019-03-24T16:46:55.417Z,3.43
2019-03-24T16:49:26.876Z,3.60
2019-03-24T16:51:57.411Z,3.60
2019-03-24T16:54:28.059Z,3.13
2019-03-24T16:56:58.648Z,3.17
2019-03-24T16:59:29.114Z,2.90
2019-03-24T17:01:59.659Z,3.23
2019-03-24T17:04:30.207Z,2.93
2019-03-24T17:07:00.701Z,2.83
2019-03-24T17:09:31.167Z,3.20
2019-03-24T17:12:01.838Z,3.23
2019-03-24T17:14:32.298Z,3.00
2019-03-24T17:17:02.860Z,3.00
2019-03-24T17:19:33.457Z,2.97
2019-03-24T17:22:04.202Z,3.07
2019-03-24T17:24:34.829Z,2.90
2019-03-24T17:27:05.464Z,2.80
2019-03-24T17:29:35.999Z,2.90
2019-03-24T17:32:06.573Z,2.70
2019-03-24T17:34:37.034Z,2.80
2019-03-24T17:37:07.765Z,2.40
2019-03-24T17:39:38.291Z,3.10
2019-03-24T17:42:08.961Z,2.67
2019-03-24T17:44:40.692Z,2.60
2019-03-24T17:47:11.181Z,2.80
2019-03-24T17:49:41.801Z,2.90
2019-03-24T17:52:12.378Z,2.60
2019-03-24T17:54:42.945Z,2.67
2019-03-24T17:57:13.386Z,3.00
2019-03-24T17:59:44.059Z,2.60
2019-03-24T18:02:14.825Z,2.63
2019-03-24T18:04:45.309Z,2.70
2019-03-24T18:07:15.861Z,2.63
2019-03-24T18:09:46.400Z,2.57
2019-03-24T18:12:16.904Z,2.70
2019-03-24T18:14:47.586Z,2.77
2019-03-24T18:17:18.306Z,2.63
2019-03-24T18:19:48.717Z,2.70
2019-03-24T18:22:19.168Z,2.87
2019-03-24T18:24:49.869Z,2.47
2019-03-24T18:27:20.493Z,2.50
2019-03-24T18:29:51.066Z,2.77
2019-03-24T18:32:23.085Z,2.70
2019-03-24T18:34:53.790Z,2.50
2019-03-24T18:37:24.341Z,2.53
2019-03-24T18:39:54.797Z,2.40
2019-03-24T18:42:27.527Z,2.60
2019-03-24T18:44:57.498Z,3.03
2019-03-24T18:47:28.038Z,2.40
2019-03-24T18:49:58.734Z,2.70
2019-03-24T18:52:29.278Z,3.00
2019-03-24T18:54:59.773Z,2.90
2019-03-24T18:57:30.275Z,2.97
2019-03-24T19:00:00.811Z,3.57
2019-03-24T19:02:31.249Z,3.20
2019-03-24T19:05:01.720Z,3.27
2019-03-24T19:07:32.513Z,3.30
2019-03-24T19:10:03.129Z,3.43
2019-03-24T19:12:33.697Z,3.77
2019-03-24T19:15:04.792Z,3.83
2019-03-24T19:17:35.635Z,4.40
2019-03-24T19:20:06.700Z,4.10
2019-03-24T19:22:37.535Z,5.77
2019-03-24T19:25:08.751Z,6.17
2019-03-24T19:27:39.319Z,6.20
2019-03-24T19:30:11.428Z,5.43
2019-03-24T19:32:42.149Z,6.23
2019-03-24T19:35:13.247Z,7.13
2019-03-24T19:37:45.997Z,6.43
2019-03-24T19:40:41.428Z,6.90
2019-03-24T19:43:13.154Z,8.53
2019-03-24T19:45:43.722Z,10.37
2019-03-24T19:48:14.186Z,10.57
2019-03-24T19:50:44.857Z,9.33
2019-03-24T19:53:15.396Z,9.20
2019-03-24T19:55:46.242Z,9.73
2019-03-24T19:58:17.101Z,9.47
2019-03-24T20:00:47.638Z,9.27
2019-03-24T20:03:18.117Z,9.53
2019-03-24T20:05:48.811Z,8.90
2019-03-24T20:08:19.783Z,10.00
2019-03-24T20:10:50.724Z,10.03
2019-03-24T20:13:21.243Z,10.87
2019-03-24T20:15:51.726Z,10.03
2019-03-24T20:18:22.415Z,9.17
2019-03-24T20:20:52.979Z,9.50
2019-03-24T20:23:23.489Z,8.87
2019-03-24T20:25:53.962Z,9.13
2019-03-24T20:28:25.014Z,8.60
2019-03-24T20:30:56.298Z,8.70
2019-03-24T20:33:27.307Z,8.97
2019-03-24T20:35:57.857Z,8.00
2019-03-24T20:38:28.656Z,8.17
2019-03-24T20:40:59.218Z,7.67
2019-03-24T20:43:29.809Z,7.83
2019-03-24T20:46:00.277Z,8.10
2019-03-24T20:48:30.809Z,8.03
2019-03-24T20:51:02.255Z,9.17
2019-03-24T20:53:34.305Z,8.77
2019-03-24T20:56:06.519Z,7.83
2019-03-24T20:58:37.815Z,9.97
2019-03-24T21:01:08.829Z,12.20
2019-03-24T21:03:39.694Z,12.17
2019-03-24T21:06:10.374Z,11.40
2019-03-24T21:08:41.327Z,10.47
2019-03-24T21:11:13.732Z,9.47
2019-03-24T21:13:46.169Z,10.10
2019-03-24T21:16:18.262Z,9.87
2019-03-24T21:18:51.168Z,9.00
2019-03-24T21:21:23.854Z,8.73
2019-03-24T21:23:55.368Z,8.83
2019-03-24T21:26:26.581Z,8.40
2019-03-24T21:28:57.588Z,8.70
2019-03-24T21:31:28.835Z,9.00
2019-03-24T21:34:00.210Z,8.83
2019-03-24T21:36:32.161Z,8.77
2019-03-24T21:39:04.859Z,8.37
2019-03-24T21:41:35.682Z,10.00
2019-03-24T21:44:06.393Z,10.07
2019-03-24T21:46:37.078Z,10.43
2019-03-24T21:49:07.659Z,11.03
2019-03-24T21:51:38.134Z,11.60
2019-03-24T21:54:08.671Z,10.57
2019-03-24T21:56:39.316Z,10.23
2019-03-24T21:59:09.894Z,10.57
2019-03-24T22:01:40.499Z,10.23
2019-03-24T22:04:11.099Z,10.10
2019-03-24T22:06:41.624Z,10.73
2019-03-24T22:09:12.190Z,11.27
2019-03-24T22:11:42.882Z,14.17
2019-03-24T22:14:15.517Z,15.87
2019-03-24T22:16:46.826Z,13.97
2019-03-24T22:19:17.309Z,17.20
2019-03-24T22:21:47.789Z,19.70
2019-03-24T22:24:18.334Z,15.10
2019-03-24T22:26:48.893Z,17.97
2019-03-24T22:29:19.505Z,18.90
2019-03-24T22:31:49.977Z,18.23
2019-03-24T22:34:20.517Z,17.13
2019-03-24T22:36:51.136Z,17.50
2019-03-24T22:39:21.573Z,17.47
2019-03-24T22:41:52.106Z,17.50
2019-03-24T22:44:22.771Z,17.23
2019-03-24T22:46:53.435Z,16.57
2019-03-24T22:49:23.984Z,16.67
2019-03-24T22:52:02.744Z,18.97
2019-03-24T22:54:26.781Z,16.57
2019-03-24T22:56:57.621Z,15.87
2019-03-24T22:59:28.403Z,14.90
2019-03-24T23:01:59.085Z,15.83
2019-03-24T23:04:29.780Z,16.20
2019-03-24T23:07:00.567Z,16.10
2019-03-24T23:09:31.143Z,15.93
2019-03-24T23:12:01.914Z,14.37
2019-03-24T23:14:32.393Z,15.00
2019-03-24T23:17:02.888Z,13.93
2019-03-24T23:19:33.511Z,14.10
2019-03-24T23:22:04.080Z,13.27
2019-03-24T23:24:34.569Z,13.80
2019-03-24T23:27:05.313Z,12.63
2019-03-24T23:29:35.870Z,13.50
2019-03-24T23:32:06.496Z,12.93
2019-03-24T23:34:37.022Z,13.30
2019-03-24T23:37:07.571Z,14.90
2019-03-24T23:39:38.131Z,15.40
2019-03-24T23:42:08.699Z,16.63
2019-03-24T23:44:39.211Z,14.93
2019-03-24T23:47:09.864Z,15.50
2019-03-24T23:49:40.314Z,13.60
2019-03-24T23:52:10.807Z,14.03
2019-03-24T23:54:41.400Z,14.27
2019-03-24T23:57:12.135Z,12.57
2019-03-24T23:59:42.696Z,13.03
